sensor_id;sensor_type;location;lat;lon;timestamp;pressure;altitude;pressure_sealevel;temperature
45850;BMP180;10739;52.198;20.908;2023-02-05T00:01:23;102086.00;;;-1.10
45850;BMP180;10739;52.198;20.908;2023-02-05T00:03:49;102095.00;;;-1.50
45850;BMP180;10739;52.198;20.908;2023-02-05T00:06:16;102094.00;;;-1.00
45850;BMP180;10739;52.198;20.908;2023-02-05T00:08:42;102092.00;;;-0.90
45850;BMP180;10739;52.198;20.908;2023-02-05T00:11:08;102096.00;;;-0.90
45850;BMP180;10739;52.198;20.908;2023-02-05T00:13:37;102095.00;;;-0.90
45850;BMP180;10739;52.198;20.908;2023-02-05T00:16:16;102090.00;;;-0.70
45850;BMP180;10739;52.198;20.908;2023-02-05T00:18:43;102090.00;;;-0.90
45850;BMP180;10739;52.198;20.908;2023-02-05T00:21:11;102091.00;;;-0.70
45850;BMP180;10739;52.198;20.908;2023-02-05T00:23:39;102088.00;;;-1.00
45850;BMP180;10739;52.198;20.908;2023-02-05T00:26:07;102090.00;;;-0.70
45850;BMP180;10739;52.198;20.908;2023-02-05T00:28:35;102099.00;;;-0.70
45850;BMP180;10739;52.198;20.908;2023-02-05T00:31:12;102095.00;;;-1.00
45850;BMP180;10739;52.198;20.908;2023-02-05T00:33:39;102083.00;;;-0.70
45850;BMP180;10739;52.198;20.908;2023-02-05T00:36:07;102095.00;;;-1.00
45850;BMP180;10739;52.198;20.908;2023-02-05T00:38:34;102094.00;;;-1.10
45850;BMP180;10739;52.198;20.908;2023-02-05T00:41:02;102099.00;;;-0.90
45850;BMP180;10739;52.198;20.908;2023-02-05T00:43:29;102093.00;;;-0.70
45850;BMP180;10739;52.198;20.908;2023-02-05T00:45:56;102094.00;;;-0.60
45850;BMP180;10739;52.198;20.908;2023-02-05T00:48:22;102107.00;;;-0.50
45850;BMP180;10739;52.198;20.908;2023-02-05T00:50:50;102098.00;;;-0.50
45850;BMP180;10739;52.198;20.908;2023-02-05T00:53:18;102094.00;;;-0.40
45850;BMP180;10739;52.198;20.908;2023-02-05T00:55:45;102111.00;;;-0.60
45850;BMP180;10739;52.198;20.908;2023-02-05T00:58:12;102101.00;;;-0.70
45850;BMP180;10739;52.198;20.908;2023-02-05T01:00:39;102105.00;;;-0.40
45850;BMP180;10739;52.198;20.908;2023-02-05T01:03:05;102111.00;;;0.10
45850;BMP180;10739;52.198;20.908;2023-02-05T01:05:37;102120.00;;;0.10
45850;BMP180;10739;52.198;20.908;2023-02-05T01:08:06;102109.00;;;0.10
45850;BMP180;10739;52.198;20.908;2023-02-05T01:10:33;102107.00;;;0.30
45850;BMP180;10739;52.198;20.908;2023-02-05T01:12:59;102104.00;;;0.40
45850;BMP180;10739;52.198;20.908;2023-02-05T01:15:26;102103.00;;;0.20
45850;BMP180;10739;52.198;20.908;2023-02-05T01:17:52;102105.00;;;0.20
45850;BMP180;10739;52.198;20.908;2023-02-05T01:20:19;102098.00;;;0.10
45850;BMP180;10739;52.198;20.908;2023-02-05T01:22:46;102089.00;;;0.30
45850;BMP180;10739;52.198;20.908;2023-02-05T01:25:13;102091.00;;;0.10
45850;BMP180;10739;52.198;20.908;2023-02-05T01:27:39;102090.00;;;0.30
45850;BMP180;10739;52.198;20.908;2023-02-05T01:30:07;102101.00;;;0.30
45850;BMP180;10739;52.198;20.908;2023-02-05T01:32:33;102105.00;;;0.30
45850;BMP180;10739;52.198;20.908;2023-02-05T01:35:00;102094.00;;;0.40
45850;BMP180;10739;52.198;20.908;2023-02-05T01:37:27;102100.00;;;0.40
45850;BMP180;10739;52.198;20.908;2023-02-05T01:39:53;102100.00;;;0.50
45850;BMP180;10739;52.198;20.908;2023-02-05T01:42:29;102102.00;;;0.10
45850;BMP180;10739;52.198;20.908;2023-02-05T01:47:59;102096.00;;;0.00
45850;BMP180;10739;52.198;20.908;2023-02-05T01:50:34;102095.00;;;0.20
45850;BMP180;10739;52.198;20.908;2023-02-05T01:53:08;102087.00;;;0.00
45850;BMP180;10739;52.198;20.908;2023-02-05T01:55:44;102097.00;;;0.00
45850;BMP180;10739;52.198;20.908;2023-02-05T01:58:12;102092.00;;;0.00
45850;BMP180;10739;52.198;20.908;2023-02-05T02:00:40;102088.00;;;-0.10
45850;BMP180;10739;52.198;20.908;2023-02-05T02:03:06;102080.00;;;-0.10
45850;BMP180;10739;52.198;20.908;2023-02-05T02:05:33;102085.00;;;0.10
45850;BMP180;10739;52.198;20.908;2023-02-05T02:07:59;102080.00;;;0.00
45850;BMP180;10739;52.198;20.908;2023-02-05T02:10:26;102086.00;;;0.20
45850;BMP180;10739;52.198;20.908;2023-02-05T02:12:54;102089.00;;;0.30
45850;BMP180;10739;52.198;20.908;2023-02-05T02:15:24;102086.00;;;0.20
45850;BMP180;10739;52.198;20.908;2023-02-05T02:18:01;102081.00;;;0.20
45850;BMP180;10739;52.198;20.908;2023-02-05T02:21:09;102095.00;;;0.10
45850;BMP180;10739;52.198;20.908;2023-02-05T02:24:21;102095.00;;;0.00
45850;BMP180;10739;52.198;20.908;2023-02-05T02:32:40;102085.00;;;-0.40
45850;BMP180;10739;52.198;20.908;2023-02-05T02:35:29;102083.00;;;-0.20
45850;BMP180;10739;52.198;20.908;2023-02-05T02:39:12;102106.00;;;0.00
45850;BMP180;10739;52.198;20.908;2023-02-05T02:41:38;102105.00;;;-0.10
45850;BMP180;10739;52.198;20.908;2023-02-05T02:44:13;102112.00;;;0.10
45850;BMP180;10739;52.198;20.908;2023-02-05T02:46:45;102106.00;;;0.30
45850;BMP180;10739;52.198;20.908;2023-02-05T02:49:40;102109.00;;;0.10
45850;BMP180;10739;52.198;20.908;2023-02-05T02:52:12;102108.00;;;0.50
45850;BMP180;10739;52.198;20.908;2023-02-05T02:54:45;102108.00;;;0.30
45850;BMP180;10739;52.198;20.908;2023-02-05T02:57:14;102114.00;;;0.50
45850;BMP180;10739;52.198;20.908;2023-02-05T02:59:45;102115.00;;;0.30
45850;BMP180;10739;52.198;20.908;2023-02-05T03:02:14;102125.00;;;0.10
45850;BMP180;10739;52.198;20.908;2023-02-05T03:04:49;102126.00;;;0.40
45850;BMP180;10739;52.198;20.908;2023-02-05T03:07:27;102119.00;;;0.10
45850;BMP180;10739;52.198;20.908;2023-02-05T03:10:23;102137.00;;;0.10
45850;BMP180;10739;52.198;20.908;2023-02-05T03:12:51;102130.00;;;0.40
45850;BMP180;10739;52.198;20.908;2023-02-05T03:15:19;102127.00;;;0.10
45850;BMP180;10739;52.198;20.908;2023-02-05T03:17:45;102125.00;;;0.20
45850;BMP180;10739;52.198;20.908;2023-02-05T03:20:20;102129.00;;;0.50
45850;BMP180;10739;52.198;20.908;2023-02-05T03:22:47;102118.00;;;0.30
45850;BMP180;10739;52.198;20.908;2023-02-05T03:25:18;102116.00;;;0.40
45850;BMP180;10739;52.198;20.908;2023-02-05T03:27:46;102108.00;;;0.30
45850;BMP180;10739;52.198;20.908;2023-02-05T03:30:13;102105.00;;;0.20
45850;BMP180;10739;52.198;20.908;2023-02-05T03:38:38;102107.00;;;0.40
45850;BMP180;10739;52.198;20.908;2023-02-05T03:41:47;102091.00;;;0.30
45850;BMP180;10739;52.198;20.908;2023-02-05T03:50:36;102113.00;;;0.40
45850;BMP180;10739;52.198;20.908;2023-02-05T03:56:16;102101.00;;;0.40
45850;BMP180;10739;52.198;20.908;2023-02-05T03:58:49;102106.00;;;0.30
45850;BMP180;10739;52.198;20.908;2023-02-05T04:01:17;102101.00;;;0.40
45850;BMP180;10739;52.198;20.908;2023-02-05T04:03:45;102113.00;;;0.00
45850;BMP180;10739;52.198;20.908;2023-02-05T04:06:12;102109.00;;;0.30
45850;BMP180;10739;52.198;20.908;2023-02-05T04:08:38;102111.00;;;0.40
45850;BMP180;10739;52.198;20.908;2023-02-05T04:11:05;102105.00;;;0.30
45850;BMP180;10739;52.198;20.908;2023-02-05T04:13:32;102116.00;;;0.20
45850;BMP180;10739;52.198;20.908;2023-02-05T04:15:58;102107.00;;;0.20
45850;BMP180;10739;52.198;20.908;2023-02-05T04:18:24;102107.00;;;0.50
45850;BMP180;10739;52.198;20.908;2023-02-05T04:20:50;102110.00;;;0.40
45850;BMP180;10739;52.198;20.908;2023-02-05T04:23:17;102108.00;;;0.10
45850;BMP180;10739;52.198;20.908;2023-02-05T04:25:44;102115.00;;;0.10
45850;BMP180;10739;52.198;20.908;2023-02-05T04:28:10;102114.00;;;0.30
45850;BMP180;10739;52.198;20.908;2023-02-05T04:30:38;102132.00;;;0.10
45850;BMP180;10739;52.198;20.908;2023-02-05T04:33:05;102125.00;;;0.20
45850;BMP180;10739;52.198;20.908;2023-02-05T04:35:31;102128.00;;;0.20
45850;BMP180;10739;52.198;20.908;2023-02-05T04:37:57;102117.00;;;0.20
45850;BMP180;10739;52.198;20.908;2023-02-05T04:40:24;102140.00;;;0.20
45850;BMP180;10739;52.198;20.908;2023-02-05T04:42:50;102133.00;;;0.20
45850;BMP180;10739;52.198;20.908;2023-02-05T04:45:16;102147.00;;;-0.10
45850;BMP180;10739;52.198;20.908;2023-02-05T04:47:43;102133.00;;;-0.20
45850;BMP180;10739;52.198;20.908;2023-02-05T04:50:09;102140.00;;;-0.10
45850;BMP180;10739;52.198;20.908;2023-02-05T04:52:35;102146.00;;;0.00
45850;BMP180;10739;52.198;20.908;2023-02-05T04:55:02;102142.00;;;0.10
45850;BMP180;10739;52.198;20.908;2023-02-05T04:57:30;102137.00;;;0.30
45850;BMP180;10739;52.198;20.908;2023-02-05T04:59:56;102137.00;;;0.30
45850;BMP180;10739;52.198;20.908;2023-02-05T05:02:22;102153.00;;;0.10
45850;BMP180;10739;52.198;20.908;2023-02-05T05:04:49;102145.00;;;0.00
45850;BMP180;10739;52.198;20.908;2023-02-05T05:07:15;102145.00;;;0.00
45850;BMP180;10739;52.198;20.908;2023-02-05T05:09:42;102148.00;;;0.00
45850;BMP180;10739;52.198;20.908;2023-02-05T05:12:08;102141.00;;;0.00
45850;BMP180;10739;52.198;20.908;2023-02-05T05:14:35;102147.00;;;0.10
45850;BMP180;10739;52.198;20.908;2023-02-05T05:17:03;102147.00;;;0.10
45850;BMP180;10739;52.198;20.908;2023-02-05T05:19:29;102145.00;;;0.30
45850;BMP180;10739;52.198;20.908;2023-02-05T05:21:55;102148.00;;;0.30
45850;BMP180;10739;52.198;20.908;2023-02-05T05:24:22;102147.00;;;0.50
45850;BMP180;10739;52.198;20.908;2023-02-05T05:26:48;102152.00;;;0.40
45850;BMP180;10739;52.198;20.908;2023-02-05T05:29:14;102150.00;;;0.60
45850;BMP180;10739;52.198;20.908;2023-02-05T05:31:41;102151.00;;;0.60
45850;BMP180;10739;52.198;20.908;2023-02-05T05:34:08;102149.00;;;0.30
45850;BMP180;10739;52.198;20.908;2023-02-05T05:36:35;102144.00;;;0.30
45850;BMP180;10739;52.198;20.908;2023-02-05T05:39:01;102151.00;;;0.10
45850;BMP180;10739;52.198;20.908;2023-02-05T05:41:46;102148.00;;;0.20
45850;BMP180;10739;52.198;20.908;2023-02-05T05:44:31;102144.00;;;-0.10
45850;BMP180;10739;52.198;20.908;2023-02-05T05:46:58;102155.00;;;0.00
45850;BMP180;10739;52.198;20.908;2023-02-05T05:49:24;102163.00;;;0.10
45850;BMP180;10739;52.198;20.908;2023-02-05T05:51:50;102153.00;;;-0.20
45850;BMP180;10739;52.198;20.908;2023-02-05T05:54:16;102165.00;;;-0.10
45850;BMP180;10739;52.198;20.908;2023-02-05T05:56:43;102169.00;;;0.00
45850;BMP180;10739;52.198;20.908;2023-02-05T05:59:11;102171.00;;;0.00
45850;BMP180;10739;52.198;20.908;2023-02-05T06:01:38;102174.00;;;-0.20
45850;BMP180;10739;52.198;20.908;2023-02-05T06:04:04;102177.00;;;0.00
45850;BMP180;10739;52.198;20.908;2023-02-05T06:06:31;102178.00;;;0.00
45850;BMP180;10739;52.198;20.908;2023-02-05T06:08:57;102185.00;;;-0.10
45850;BMP180;10739;52.198;20.908;2023-02-05T06:11:23;102186.00;;;0.20
45850;BMP180;10739;52.198;20.908;2023-02-05T06:13:50;102182.00;;;0.20
45850;BMP180;10739;52.198;20.908;2023-02-05T06:16:16;102192.00;;;0.10
45850;BMP180;10739;52.198;20.908;2023-02-05T06:18:42;102192.00;;;0.30
45850;BMP180;10739;52.198;20.908;2023-02-05T06:21:09;102185.00;;;0.00
45850;BMP180;10739;52.198;20.908;2023-02-05T06:23:35;102191.00;;;0.30
45850;BMP180;10739;52.198;20.908;2023-02-05T06:26:02;102198.00;;;0.10
45850;BMP180;10739;52.198;20.908;2023-02-05T06:28:28;102197.00;;;0.10
45850;BMP180;10739;52.198;20.908;2023-02-05T06:30:55;102205.00;;;0.40
45850;BMP180;10739;52.198;20.908;2023-02-05T06:33:21;102194.00;;;0.30
45850;BMP180;10739;52.198;20.908;2023-02-05T06:35:48;102209.00;;;0.50
45850;BMP180;10739;52.198;20.908;2023-02-05T06:38:14;102203.00;;;0.60
45850;BMP180;10739;52.198;20.908;2023-02-05T06:40:40;102209.00;;;0.50
45850;BMP180;10739;52.198;20.908;2023-02-05T06:43:07;102207.00;;;0.50
45850;BMP180;10739;52.198;20.908;2023-02-05T06:45:33;102213.00;;;0.50
45850;BMP180;10739;52.198;20.908;2023-02-05T06:47:59;102212.00;;;0.60
45850;BMP180;10739;52.198;20.908;2023-02-05T06:50:26;102212.00;;;0.30
45850;BMP180;10739;52.198;20.908;2023-02-05T06:52:52;102218.00;;;0.40
45850;BMP180;10739;52.198;20.908;2023-02-05T06:55:19;102221.00;;;0.40
45850;BMP180;10739;52.198;20.908;2023-02-05T06:57:45;102217.00;;;0.10
45850;BMP180;10739;52.198;20.908;2023-02-05T07:00:12;102224.00;;;0.30
45850;BMP180;10739;52.198;20.908;2023-02-05T07:02:39;102226.00;;;0.60
45850;BMP180;10739;52.198;20.908;2023-02-05T07:05:06;102215.00;;;0.50
45850;BMP180;10739;52.198;20.908;2023-02-05T07:07:33;102234.00;;;0.40
45850;BMP180;10739;52.198;20.908;2023-02-05T07:10:00;102219.00;;;0.80
45850;BMP180;10739;52.198;20.908;2023-02-05T07:12:26;102225.00;;;0.80
45850;BMP180;10739;52.198;20.908;2023-02-05T07:14:52;102235.00;;;0.90
45850;BMP180;10739;52.198;20.908;2023-02-05T07:17:19;102240.00;;;0.70
45850;BMP180;10739;52.198;20.908;2023-02-05T07:19:46;102241.00;;;0.70
45850;BMP180;10739;52.198;20.908;2023-02-05T07:22:13;102240.00;;;0.80
45850;BMP180;10739;52.198;20.908;2023-02-05T07:24:39;102239.00;;;0.90
45850;BMP180;10739;52.198;20.908;2023-02-05T07:27:05;102238.00;;;0.90
45850;BMP180;10739;52.198;20.908;2023-02-05T07:29:32;102233.00;;;0.90
45850;BMP180;10739;52.198;20.908;2023-02-05T07:31:58;102235.00;;;1.10
45850;BMP180;10739;52.198;20.908;2023-02-05T07:34:24;102231.00;;;1.20
45850;BMP180;10739;52.198;20.908;2023-02-05T07:36:51;102241.00;;;0.90
45850;BMP180;10739;52.198;20.908;2023-02-05T07:39:19;102244.00;;;1.10
45850;BMP180;10739;52.198;20.908;2023-02-05T07:41:46;102243.00;;;0.90
45850;BMP180;10739;52.198;20.908;2023-02-05T07:44:12;102246.00;;;1.00
45850;BMP180;10739;52.198;20.908;2023-02-05T07:46:39;102246.00;;;0.90
45850;BMP180;10739;52.198;20.908;2023-02-05T07:49:05;102249.00;;;1.20
45850;BMP180;10739;52.198;20.908;2023-02-05T07:51:31;102258.00;;;1.10
45850;BMP180;10739;52.198;20.908;2023-02-05T07:53:57;102254.00;;;1.20
45850;BMP180;10739;52.198;20.908;2023-02-05T07:56:24;102250.00;;;1.50
45850;BMP180;10739;52.198;20.908;2023-02-05T07:58:51;102255.00;;;1.60
45850;BMP180;10739;52.198;20.908;2023-02-05T08:01:17;102254.00;;;1.90
45850;BMP180;10739;52.198;20.908;2023-02-05T08:03:44;102256.00;;;1.90
45850;BMP180;10739;52.198;20.908;2023-02-05T08:06:14;102250.00;;;2.00
45850;BMP180;10739;52.198;20.908;2023-02-05T08:08:41;102256.00;;;1.70
45850;BMP180;10739;52.198;20.908;2023-02-05T08:11:15;102249.00;;;1.90
45850;BMP180;10739;52.198;20.908;2023-02-05T08:13:43;102264.00;;;1.60
45850;BMP180;10739;52.198;20.908;2023-02-05T08:16:11;102263.00;;;1.20
45850;BMP180;10739;52.198;20.908;2023-02-05T08:18:40;102265.00;;;1.20
45850;BMP180;10739;52.198;20.908;2023-02-05T08:21:06;102270.00;;;1.70
45850;BMP180;10739;52.198;20.908;2023-02-05T08:23:33;102275.00;;;1.70
45850;BMP180;10739;52.198;20.908;2023-02-05T08:26:00;102292.00;;;1.90
45850;BMP180;10739;52.198;20.908;2023-02-05T08:28:27;102303.00;;;1.50
45850;BMP180;10739;52.198;20.908;2023-02-05T08:30:55;102298.00;;;2.00
45850;BMP180;10739;52.198;20.908;2023-02-05T08:33:22;102301.00;;;1.70
45850;BMP180;10739;52.198;20.908;2023-02-05T08:35:48;102296.00;;;1.70
45850;BMP180;10739;52.198;20.908;2023-02-05T08:38:14;102300.00;;;1.20
45850;BMP180;10739;52.198;20.908;2023-02-05T08:40:41;102295.00;;;1.60
45850;BMP180;10739;52.198;20.908;2023-02-05T08:43:07;102299.00;;;1.00
45850;BMP180;10739;52.198;20.908;2023-02-05T08:45:34;102298.00;;;1.20
45850;BMP180;10739;52.198;20.908;2023-02-05T08:48:01;102304.00;;;1.60
45850;BMP180;10739;52.198;20.908;2023-02-05T08:50:27;102304.00;;;1.20
45850;BMP180;10739;52.198;20.908;2023-02-05T08:52:54;102312.00;;;1.30
45850;BMP180;10739;52.198;20.908;2023-02-05T08:55:20;102308.00;;;1.10
45850;BMP180;10739;52.198;20.908;2023-02-05T08:57:47;102312.00;;;0.90
45850;BMP180;10739;52.198;20.908;2023-02-05T09:00:14;102319.00;;;0.90
45850;BMP180;10739;52.198;20.908;2023-02-05T09:02:41;102328.00;;;1.40
45850;BMP180;10739;52.198;20.908;2023-02-05T09:05:08;102324.00;;;1.10
45850;BMP180;10739;52.198;20.908;2023-02-05T09:07:37;102328.00;;;1.50
45850;BMP180;10739;52.198;20.908;2023-02-05T09:10:07;102335.00;;;1.70
45850;BMP180;10739;52.198;20.908;2023-02-05T09:12:34;102342.00;;;1.90
45850;BMP180;10739;52.198;20.908;2023-02-05T09:15:00;102340.00;;;1.40
45850;BMP180;10739;52.198;20.908;2023-02-05T09:17:26;102340.00;;;1.60
45850;BMP180;10739;52.198;20.908;2023-02-05T09:19:52;102349.00;;;2.10
45850;BMP180;10739;52.198;20.908;2023-02-05T09:22:19;102358.00;;;2.00
45850;BMP180;10739;52.198;20.908;2023-02-05T09:24:46;102359.00;;;2.00
45850;BMP180;10739;52.198;20.908;2023-02-05T09:27:12;102358.00;;;2.50
45850;BMP180;10739;52.198;20.908;2023-02-05T09:29:40;102369.00;;;2.10
45850;BMP180;10739;52.198;20.908;2023-02-05T09:32:07;102366.00;;;2.10
45850;BMP180;10739;52.198;20.908;2023-02-05T09:34:33;102366.00;;;1.80
45850;BMP180;10739;52.198;20.908;2023-02-05T09:36:59;102359.00;;;1.70
45850;BMP180;10739;52.198;20.908;2023-02-05T09:39:26;102365.00;;;1.70
45850;BMP180;10739;52.198;20.908;2023-02-05T09:50:29;102356.00;;;2.20
45850;BMP180;10739;52.198;20.908;2023-02-05T09:53:03;102356.00;;;2.00
45850;BMP180;10739;52.198;20.908;2023-02-05T09:55:36;102349.00;;;2.00
45850;BMP180;10739;52.198;20.908;2023-02-05T09:58:14;102348.00;;;1.80
45850;BMP180;10739;52.198;20.908;2023-02-05T10:00:50;102346.00;;;1.60
45850;BMP180;10739;52.198;20.908;2023-02-05T10:03:30;102346.00;;;1.90
45850;BMP180;10739;52.198;20.908;2023-02-05T10:09:44;102349.00;;;1.90
45850;BMP180;10739;52.198;20.908;2023-02-05T10:21:44;102344.00;;;2.20
45850;BMP180;10739;52.198;20.908;2023-02-05T10:32:50;102355.00;;;2.10
45850;BMP180;10739;52.198;20.908;2023-02-05T10:35:41;102362.00;;;2.10
45850;BMP180;10739;52.198;20.908;2023-02-05T10:38:24;102358.00;;;2.10
45850;BMP180;10739;52.198;20.908;2023-02-05T10:40:56;102339.00;;;1.80
45850;BMP180;10739;52.198;20.908;2023-02-05T10:43:30;102349.00;;;1.90
45850;BMP180;10739;52.198;20.908;2023-02-05T10:46:02;102329.00;;;1.70
45850;BMP180;10739;52.198;20.908;2023-02-05T10:51:45;102341.00;;;2.30
45850;BMP180;10739;52.198;20.908;2023-02-05T10:54:29;102332.00;;;2.20
45850;BMP180;10739;52.198;20.908;2023-02-05T10:56:57;102324.00;;;1.90
45850;BMP180;10739;52.198;20.908;2023-02-05T10:59:42;102324.00;;;2.00
45850;BMP180;10739;52.198;20.908;2023-02-05T11:02:10;102314.00;;;2.30
45850;BMP180;10739;52.198;20.908;2023-02-05T11:05:00;102311.00;;;2.20
45850;BMP180;10739;52.198;20.908;2023-02-05T11:07:39;102318.00;;;2.60
45850;BMP180;10739;52.198;20.908;2023-02-05T11:10:34;102326.00;;;2.50
45850;BMP180;10739;52.198;20.908;2023-02-05T11:13:19;102309.00;;;2.70
45850;BMP180;10739;52.198;20.908;2023-02-05T11:16:04;102311.00;;;2.80
45850;BMP180;10739;52.198;20.908;2023-02-05T11:18:42;102320.00;;;2.40
45850;BMP180;10739;52.198;20.908;2023-02-05T11:21:10;102308.00;;;2.80
45850;BMP180;10739;52.198;20.908;2023-02-05T11:23:38;102301.00;;;2.70
45850;BMP180;10739;52.198;20.908;2023-02-05T11:26:18;102307.00;;;2.90
45850;BMP180;10739;52.198;20.908;2023-02-05T11:28:45;102293.00;;;2.90
45850;BMP180;10739;52.198;20.908;2023-02-05T11:31:26;102306.00;;;2.70
45850;BMP180;10739;52.198;20.908;2023-02-05T11:34:13;102312.00;;;2.80
45850;BMP180;10739;52.198;20.908;2023-02-05T11:36:55;102305.00;;;2.40
45850;BMP180;10739;52.198;20.908;2023-02-05T11:39:41;102311.00;;;2.30
45850;BMP180;10739;52.198;20.908;2023-02-05T11:42:24;102325.00;;;2.50
45850;BMP180;10739;52.198;20.908;2023-02-05T11:44:55;102317.00;;;2.30
45850;BMP180;10739;52.198;20.908;2023-02-05T11:49:55;102304.00;;;2.20
45850;BMP180;10739;52.198;20.908;2023-02-05T11:52:32;102315.00;;;2.10
45850;BMP180;10739;52.198;20.908;2023-02-05T11:55:02;102312.00;;;1.80
45850;BMP180;10739;52.198;20.908;2023-02-05T12:00:20;102303.00;;;2.50
45850;BMP180;10739;52.198;20.908;2023-02-05T12:02:47;102316.00;;;2.70
45850;BMP180;10739;52.198;20.908;2023-02-05T12:05:35;102308.00;;;2.80
45850;BMP180;10739;52.198;20.908;2023-02-05T12:08:23;102308.00;;;2.80
45850;BMP180;10739;52.198;20.908;2023-02-05T12:17:00;102304.00;;;3.20
45850;BMP180;10739;52.198;20.908;2023-02-05T12:29:00;102291.00;;;3.40
45850;BMP180;10739;52.198;20.908;2023-02-05T12:43:43;102296.00;;;2.50
45850;BMP180;10739;52.198;20.908;2023-02-05T12:52:27;102297.00;;;2.80
45850;BMP180;10739;52.198;20.908;2023-02-05T12:58:41;102285.00;;;3.10
45850;BMP180;10739;52.198;20.908;2023-02-05T13:01:18;102288.00;;;2.90
45850;BMP180;10739;52.198;20.908;2023-02-05T13:03:59;102278.00;;;2.70
45850;BMP180;10739;52.198;20.908;2023-02-05T13:06:50;102290.00;;;2.90
45850;BMP180;10739;52.198;20.908;2023-02-05T13:09:28;102289.00;;;2.90
45850;BMP180;10739;52.198;20.908;2023-02-05T13:12:19;102287.00;;;2.90
45850;BMP180;10739;52.198;20.908;2023-02-05T13:15:41;102290.00;;;3.10
45850;BMP180;10739;52.198;20.908;2023-02-05T13:18:24;102294.00;;;3.40
45850;BMP180;10739;52.198;20.908;2023-02-05T13:21:05;102283.00;;;2.80
45850;BMP180;10739;52.198;20.908;2023-02-05T13:27:22;102296.00;;;2.80
45850;BMP180;10739;52.198;20.908;2023-02-05T13:30:15;102293.00;;;2.80
45850;BMP180;10739;52.198;20.908;2023-02-05T13:32:50;102301.00;;;3.20
45850;BMP180;10739;52.198;20.908;2023-02-05T13:35:19;102301.00;;;2.80
45850;BMP180;10739;52.198;20.908;2023-02-05T13:43:44;102294.00;;;2.80
45850;BMP180;10739;52.198;20.908;2023-02-05T13:49:23;102296.00;;;3.20
45850;BMP180;10739;52.198;20.908;2023-02-05T13:52:14;102309.00;;;2.50
45850;BMP180;10739;52.198;20.908;2023-02-05T13:58:16;102296.00;;;3.00
45850;BMP180;10739;52.198;20.908;2023-02-05T14:00:59;102297.00;;;2.70
45850;BMP180;10739;52.198;20.908;2023-02-05T14:03:36;102301.00;;;2.80
45850;BMP180;10739;52.198;20.908;2023-02-05T14:06:30;102300.00;;;2.90
45850;BMP180;10739;52.198;20.908;2023-02-05T14:11:56;102307.00;;;2.90
45850;BMP180;10739;52.198;20.908;2023-02-05T14:16:59;102303.00;;;2.30
45850;BMP180;10739;52.198;20.908;2023-02-05T14:22:43;102306.00;;;1.80
45850;BMP180;10739;52.198;20.908;2023-02-05T14:30:59;102300.00;;;2.70
45850;BMP180;10739;52.198;20.908;2023-02-05T14:39:02;102303.00;;;3.00
45850;BMP180;10739;52.198;20.908;2023-02-05T14:44:34;102307.00;;;2.90
45850;BMP180;10739;52.198;20.908;2023-02-05T14:47:24;102312.00;;;2.70
45850;BMP180;10739;52.198;20.908;2023-02-05T14:50:07;102317.00;;;2.60
45850;BMP180;10739;52.198;20.908;2023-02-05T14:52:46;102310.00;;;2.70
45850;BMP180;10739;52.198;20.908;2023-02-05T14:58:05;102334.00;;;2.60
45850;BMP180;10739;52.198;20.908;2023-02-05T15:00:40;102339.00;;;2.70
45850;BMP180;10739;52.198;20.908;2023-02-05T15:05:57;102333.00;;;2.40
45850;BMP180;10739;52.198;20.908;2023-02-05T15:08:35;102346.00;;;2.20
45850;BMP180;10739;52.198;20.908;2023-02-05T15:22:27;102351.00;;;2.20
45850;BMP180;10739;52.198;20.908;2023-02-05T15:24:56;102350.00;;;2.20
45850;BMP180;10739;52.198;20.908;2023-02-05T15:27:50;102368.00;;;2.10
45850;BMP180;10739;52.198;20.908;2023-02-05T15:30:26;102370.00;;;2.50
45850;BMP180;10739;52.198;20.908;2023-02-05T15:33:25;102365.00;;;2.60
45850;BMP180;10739;52.198;20.908;2023-02-05T15:35:54;102358.00;;;2.50
45850;BMP180;10739;52.198;20.908;2023-02-05T15:38:40;102367.00;;;2.80
45850;BMP180;10739;52.198;20.908;2023-02-05T15:41:11;102370.00;;;2.70
45850;BMP180;10739;52.198;20.908;2023-02-05T15:43:40;102368.00;;;2.20
45850;BMP180;10739;52.198;20.908;2023-02-05T15:46:21;102362.00;;;2.10
45850;BMP180;10739;52.198;20.908;2023-02-05T15:48:48;102368.00;;;2.20
45850;BMP180;10739;52.198;20.908;2023-02-05T15:51:34;102366.00;;;2.40
45850;BMP180;10739;52.198;20.908;2023-02-05T15:54:04;102371.00;;;2.60
45850;BMP180;10739;52.198;20.908;2023-02-05T15:56:38;102372.00;;;2.40
45850;BMP180;10739;52.198;20.908;2023-02-05T15:59:11;102368.00;;;2.50
45850;BMP180;10739;52.198;20.908;2023-02-05T16:01:45;102371.00;;;2.50
45850;BMP180;10739;52.198;20.908;2023-02-05T16:04:29;102369.00;;;2.60
45850;BMP180;10739;52.198;20.908;2023-02-05T16:06:56;102368.00;;;2.50
45850;BMP180;10739;52.198;20.908;2023-02-05T16:09:27;102381.00;;;2.50
45850;BMP180;10739;52.198;20.908;2023-02-05T16:11:54;102383.00;;;2.40
45850;BMP180;10739;52.198;20.908;2023-02-05T16:14:26;102362.00;;;2.50
45850;BMP180;10739;52.198;20.908;2023-02-05T16:17:37;102367.00;;;2.50
45850;BMP180;10739;52.198;20.908;2023-02-05T16:20:26;102372.00;;;2.60
45850;BMP180;10739;52.198;20.908;2023-02-05T16:23:01;102378.00;;;2.60
45850;BMP180;10739;52.198;20.908;2023-02-05T16:25:58;102372.00;;;2.50
45850;BMP180;10739;52.198;20.908;2023-02-05T16:28:44;102383.00;;;2.50
45850;BMP180;10739;52.198;20.908;2023-02-05T16:31:18;102388.00;;;2.40
45850;BMP180;10739;52.198;20.908;2023-02-05T16:33:57;102393.00;;;2.50
45850;BMP180;10739;52.198;20.908;2023-02-05T16:36:35;102391.00;;;2.60
45850;BMP180;10739;52.198;20.908;2023-02-05T16:39:17;102377.00;;;2.40
45850;BMP180;10739;52.198;20.908;2023-02-05T16:44:35;102397.00;;;2.40
45850;BMP180;10739;52.198;20.908;2023-02-05T16:49:31;102400.00;;;2.70
45850;BMP180;10739;52.198;20.908;2023-02-05T16:51:58;102402.00;;;2.60
45850;BMP180;10739;52.198;20.908;2023-02-05T16:54:30;102401.00;;;2.20
45850;BMP180;10739;52.198;20.908;2023-02-05T16:57:15;102410.00;;;2.30
45850;BMP180;10739;52.198;20.908;2023-02-05T16:59:52;102403.00;;;2.20
45850;BMP180;10739;52.198;20.908;2023-02-05T17:02:39;102409.00;;;2.50